createdAt,value
2024-02-14T00:00:20.328Z,100.00
2024-02-14T00:02:48.064Z,100.00
2024-02-14T00:05:15.358Z,100.00
2024-02-14T00:07:43.057Z,100.00
2024-02-14T00:10:10.691Z,100.00
2024-02-14T00:12:37.937Z,100.00
2024-02-14T00:15:06.255Z,100.00
2024-02-14T00:17:33.812Z,100.00
2024-02-14T00:20:04.339Z,100.00
2024-02-14T00:22:32.547Z,100.00
2024-02-14T00:24:59.830Z,100.00
2024-02-14T00:27:27.260Z,100.00
2024-02-14T00:29:54.602Z,100.00
2024-02-14T00:32:21.856Z,100.00
2024-02-14T00:34:49.338Z,100.00
2024-02-14T00:37:16.979Z,100.00
2024-02-14T00:39:44.128Z,100.00
2024-02-14T00:42:11.285Z,100.00
2024-02-14T00:44:38.699Z,100.00
2024-02-14T00:47:06.067Z,100.00
2024-02-14T00:49:36.211Z,100.00
2024-02-14T00:52:03.736Z,100.00
2024-02-14T00:54:30.928Z,100.00
2024-02-14T00:56:58.244Z,100.00
2024-02-14T00:59:25.570Z,100.00
2024-02-14T01:01:53.105Z,100.00
2024-02-14T01:04:20.339Z,100.00
2024-02-14T01:06:47.712Z,100.00
2024-02-14T01:09:14.973Z,100.00
2024-02-14T01:11:42.143Z,100.00
2024-02-14T01:14:09.450Z,100.00
2024-02-14T01:16:44.037Z,100.00
2024-02-14T01:19:11.875Z,100.00
2024-02-14T01:21:39.472Z,100.00
2024-02-14T01:24:07.132Z,100.00
2024-02-14T01:26:34.413Z,100.00
2024-02-14T01:29:01.512Z,100.00
2024-02-14T01:31:28.801Z,100.00
2024-02-14T01:33:57.513Z,100.00
2024-02-14T01:36:24.922Z,100.00
2024-02-14T01:38:52.166Z,100.00
2024-02-14T01:41:19.335Z,100.00
2024-02-14T01:43:46.443Z,100.00
2024-02-14T01:46:14.139Z,100.00
2024-02-14T01:48:42.822Z,100.00
2024-02-14T01:51:14.081Z,100.00
2024-02-14T01:53:41.935Z,100.00
2024-02-14T01:56:09.633Z,100.00
2024-02-14T01:58:38.114Z,100.00
2024-02-14T02:01:05.753Z,100.00
2024-02-14T02:03:33.161Z,100.00
2024-02-14T02:06:00.578Z,100.00
2024-02-14T02:08:28.182Z,100.00
2024-02-14T02:10:55.464Z,100.00
2024-02-14T02:13:22.686Z,100.00
2024-02-14T02:15:49.958Z,100.00
2024-02-14T02:18:17.449Z,100.00
2024-02-14T02:20:45.055Z,100.00
2024-02-14T02:23:13.227Z,100.00
2024-02-14T02:25:40.495Z,100.00
2024-02-14T02:28:07.804Z,100.00
2024-02-14T02:30:35.464Z,100.00
2024-02-14T02:33:03.347Z,100.00
2024-02-14T02:35:30.937Z,100.00
2024-02-14T02:37:58.185Z,100.00
2024-02-14T02:40:26.205Z,100.00
2024-02-14T02:42:53.792Z,100.00
2024-02-14T02:45:21.141Z,100.00
2024-02-14T02:47:48.653Z,100.00
2024-02-14T02:50:16.009Z,100.00
2024-02-14T02:52:43.193Z,100.00
2024-02-14T02:55:10.636Z,100.00
2024-02-14T02:57:37.756Z,100.00
2024-02-14T03:00:08.053Z,100.00
2024-02-14T03:02:36.454Z,100.00
2024-02-14T03:05:03.935Z,100.00
2024-02-14T03:07:31.210Z,100.00
2024-02-14T03:09:58.393Z,100.00
2024-02-14T03:12:25.555Z,100.00
2024-02-14T03:14:53.599Z,100.00
2024-02-14T03:17:20.821Z,100.00
2024-02-14T03:19:48.212Z,100.00
2024-02-14T03:22:15.607Z,100.00
2024-02-14T03:24:42.828Z,100.00
2024-02-14T03:27:10.055Z,100.00
2024-02-14T03:29:37.342Z,100.00
2024-02-14T03:32:04.789Z,100.00
2024-02-14T03:34:33.005Z,100.00
2024-02-14T03:37:01.327Z,100.00
2024-02-14T03:39:28.839Z,100.00
2024-02-14T03:41:57.226Z,100.00
2024-02-14T03:44:24.460Z,100.00
2024-02-14T03:46:51.717Z,100.00
2024-02-14T03:49:18.990Z,100.00
2024-02-14T03:51:46.399Z,100.00
2024-02-14T03:54:13.647Z,100.00
2024-02-14T03:56:40.924Z,100.00
2024-02-14T03:59:08.214Z,100.00
2024-02-14T04:01:35.524Z,100.00
2024-02-14T04:04:02.902Z,100.00
2024-02-14T04:06:30.424Z,100.00
2024-02-14T04:08:57.754Z,100.00
2024-02-14T04:11:25.040Z,100.00
2024-02-14T04:13:52.186Z,100.00
2024-02-14T04:16:22.220Z,100.00
2024-02-14T04:18:49.559Z,100.00
2024-02-14T04:21:16.944Z,100.00
2024-02-14T04:23:44.211Z,100.00
2024-02-14T04:26:19.012Z,100.00
2024-02-14T04:28:46.167Z,100.00
2024-02-14T04:31:13.394Z,100.00
2024-02-14T04:33:40.802Z,100.00
2024-02-14T04:36:08.248Z,100.00
2024-02-14T04:38:35.887Z,100.00
2024-02-14T04:41:03.212Z,100.00
2024-02-14T04:43:30.625Z,100.00
2024-02-14T04:45:57.841Z,100.00
2024-02-14T04:48:25.142Z,100.00
2024-02-14T04:50:52.620Z,100.00
2024-02-14T04:53:19.974Z,100.00
2024-02-14T04:55:47.173Z,100.00
2024-02-14T04:58:14.442Z,100.00
2024-02-14T05:00:41.833Z,100.00
2024-02-14T05:03:09.075Z,100.00
2024-02-14T05:05:36.939Z,100.00
2024-02-14T05:08:04.707Z,100.00
2024-02-14T05:10:32.690Z,90.24
2024-02-14T05:13:00.449Z,85.76
2024-02-14T05:15:27.972Z,85.68
2024-02-14T05:17:55.480Z,86.08
2024-02-14T05:20:23.108Z,85.46
2024-02-14T05:22:50.581Z,86.71
2024-02-14T05:25:17.849Z,100.00
2024-02-14T05:27:45.276Z,100.00
2024-02-14T05:30:12.776Z,100.00
2024-02-14T05:32:40.029Z,100.00
2024-02-14T05:35:07.737Z,100.00
2024-02-14T05:37:37.799Z,100.00
2024-02-14T05:40:06.821Z,100.00
2024-02-14T05:42:34.099Z,100.00
2024-02-14T05:45:01.593Z,100.00
2024-02-14T05:47:28.824Z,100.00
2024-02-14T05:49:56.151Z,100.00
2024-02-14T05:52:23.439Z,100.00
2024-02-14T05:54:50.679Z,100.00
2024-02-14T05:57:17.917Z,100.00
2024-02-14T05:59:45.854Z,100.00
2024-02-14T06:02:13.330Z,100.00
2024-02-14T06:04:41.194Z,100.00
2024-02-14T06:07:08.924Z,100.00
2024-02-14T06:09:36.822Z,100.00
2024-02-14T06:12:05.032Z,100.00
2024-02-14T06:14:32.748Z,100.00
2024-02-14T06:17:00.660Z,100.00
2024-02-14T06:19:28.861Z,100.00
2024-02-14T06:21:56.674Z,100.00
2024-02-14T06:24:25.034Z,100.00
2024-02-14T06:26:52.688Z,100.00
2024-02-14T06:29:20.260Z,100.00
2024-02-14T06:31:47.882Z,100.00
2024-02-14T06:34:15.306Z,100.00
2024-02-14T06:36:42.628Z,100.00
2024-02-14T06:39:09.942Z,100.00
2024-02-14T06:41:37.144Z,100.00
2024-02-14T06:44:05.562Z,100.00
2024-02-14T06:46:32.793Z,100.00
2024-02-14T06:49:00.151Z,100.00
2024-02-14T06:51:27.506Z,100.00
2024-02-14T06:53:54.740Z,100.00
2024-02-14T06:56:22.069Z,100.00
2024-02-14T06:58:49.401Z,100.00
2024-02-14T07:01:16.640Z,100.00
2024-02-14T07:03:43.887Z,100.00
2024-02-14T07:06:11.266Z,100.00
2024-02-14T07:08:38.474Z,100.00
2024-02-14T07:11:05.971Z,100.00
2024-02-14T07:13:33.306Z,100.00
2024-02-14T07:16:00.532Z,100.00
2024-02-14T07:18:27.918Z,100.00
2024-02-14T07:20:55.389Z,100.00
2024-02-14T07:23:22.658Z,100.00
2024-02-14T07:25:49.810Z,100.00
2024-02-14T07:28:16.963Z,100.00
2024-02-14T07:30:45.004Z,99.79
2024-02-14T07:33:12.702Z,100.00
2024-02-14T07:35:40.011Z,100.00
2024-02-14T07:38:07.345Z,98.30
2024-02-14T07:40:34.785Z,96.44
2024-02-14T07:43:02.393Z,97.90
2024-02-14T07:45:30.110Z,100.00
2024-02-14T07:47:57.455Z,94.27
2024-02-14T07:50:24.978Z,96.22
2024-02-14T07:52:52.403Z,99.82
2024-02-14T07:55:19.811Z,100.00
2024-02-14T07:57:46.988Z,96.03
2024-02-14T08:00:14.827Z,93.08
2024-02-14T08:02:42.246Z,95.23
2024-02-14T08:05:09.744Z,97.06
2024-02-14T08:07:37.287Z,98.32
2024-02-14T08:10:05.134Z,100.00
2024-02-14T08:12:32.371Z,99.40
2024-02-14T08:14:59.817Z,100.00
2024-02-14T08:17:27.196Z,100.00
2024-02-14T08:19:54.617Z,100.00
2024-02-14T08:22:21.975Z,100.00
2024-02-14T08:24:49.247Z,100.00
2024-02-14T08:27:16.521Z,100.00
2024-02-14T08:29:46.414Z,100.00
2024-02-14T08:32:13.849Z,100.00
2024-02-14T08:34:41.350Z,100.00
2024-02-14T08:37:08.750Z,100.00
2024-02-14T08:39:35.930Z,100.00
2024-02-14T08:42:03.168Z,99.18
2024-02-14T08:44:30.532Z,96.86
2024-02-14T08:46:57.944Z,100.00
2024-02-14T08:49:25.204Z,97.28
2024-02-14T08:51:52.872Z,94.19
2024-02-14T08:54:20.266Z,93.68
2024-02-14T08:56:47.707Z,93.34
2024-02-14T08:59:15.282Z,94.54
2024-02-14T09:01:42.768Z,93.99
2024-02-14T09:04:10.010Z,91.59
2024-02-14T09:06:37.604Z,95.16
2024-02-14T09:09:05.211Z,95.80
2024-02-14T09:11:32.623Z,93.22
2024-02-14T09:14:00.000Z,95.03
2024-02-14T09:16:27.463Z,95.75
2024-02-14T09:18:54.965Z,94.27
2024-02-14T09:21:22.485Z,94.48
2024-02-14T09:23:50.181Z,92.28
2024-02-14T09:26:17.694Z,94.58
2024-02-14T09:28:45.217Z,92.98
2024-02-14T09:31:12.688Z,90.91
2024-02-14T09:33:40.404Z,90.87
2024-02-14T09:36:08.026Z,88.80
2024-02-14T09:38:35.450Z,86.10
2024-02-14T09:41:11.938Z,85.64
2024-02-14T09:43:41.155Z,81.45
2024-02-14T09:46:08.859Z,81.89
2024-02-14T09:48:37.415Z,76.69
2024-02-14T09:51:06.394Z,81.12
2024-02-14T09:53:34.585Z,81.24
2024-02-14T09:56:03.610Z,77.41
2024-02-14T09:58:32.253Z,74.71
2024-02-14T10:00:59.782Z,75.69
2024-02-14T10:03:27.309Z,78.77
2024-02-14T10:05:55.377Z,81.19
2024-02-14T10:08:23.894Z,76.20
2024-02-14T10:10:53.157Z,75.09
2024-02-14T10:13:21.822Z,76.09
2024-02-14T10:15:49.333Z,70.64
2024-02-14T10:18:16.943Z,72.19
2024-02-14T10:20:54.921Z,73.81
2024-02-14T10:23:22.462Z,70.67
2024-02-14T10:25:56.918Z,72.50
2024-02-14T10:28:30.233Z,68.14
2024-02-14T10:31:06.653Z,68.85
2024-02-14T10:33:34.224Z,68.26
2024-02-14T10:36:03.260Z,62.90
2024-02-14T10:38:33.828Z,63.21
2024-02-14T10:41:02.007Z,69.22
2024-02-14T10:43:29.654Z,68.77
2024-02-14T10:46:00.120Z,78.13
2024-02-14T10:48:32.745Z,69.63
2024-02-14T10:51:03.800Z,69.25
2024-02-14T10:53:34.725Z,67.83
2024-02-14T10:56:03.218Z,65.56
2024-02-14T10:58:31.840Z,68.39
2024-02-14T11:01:00.700Z,74.13
2024-02-14T11:03:28.824Z,65.52
2024-02-14T11:05:56.410Z,69.40
2024-02-14T11:08:23.988Z,64.98
2024-02-14T11:10:56.447Z,63.98
2024-02-14T11:13:30.761Z,66.70
2024-02-14T11:16:01.372Z,69.65
2024-02-14T11:18:31.259Z,68.43
2024-02-14T11:20:59.191Z,71.04
2024-02-14T11:23:27.001Z,70.29
2024-02-14T11:26:01.870Z,68.66
2024-02-14T11:28:29.980Z,64.59
2024-02-14T11:31:08.578Z,66.51
2024-02-14T11:33:36.200Z,67.11
2024-02-14T11:36:10.075Z,72.76
2024-02-14T11:38:41.165Z,67.20
2024-02-14T11:41:08.791Z,64.27
2024-02-14T11:43:36.291Z,63.93
2024-02-14T11:46:03.811Z,63.48
2024-02-14T11:48:31.463Z,66.65
2024-02-14T11:50:59.068Z,65.44
2024-02-14T11:53:26.562Z,66.73
2024-02-14T11:55:54.296Z,69.91
2024-02-14T11:58:21.769Z,67.74
2024-02-14T12:00:49.326Z,69.31
2024-02-14T12:03:20.278Z,68.15
2024-02-14T12:05:50.380Z,66.93
2024-02-14T12:08:18.687Z,71.04
2024-02-14T12:10:47.394Z,71.42
2024-02-14T12:13:17.678Z,74.21
2024-02-14T12:15:48.039Z,69.97
2024-02-14T12:18:17.513Z,71.21
2024-02-14T12:20:45.425Z,70.81
2024-02-14T12:23:17.413Z,72.90
2024-02-14T12:25:45.723Z,77.33
2024-02-14T12:28:20.255Z,78.32
2024-02-14T12:30:52.017Z,78.74
2024-02-14T12:33:19.662Z,77.24
2024-02-14T12:35:48.501Z,78.04
2024-02-14T12:38:19.129Z,77.75
2024-02-14T12:40:46.873Z,77.37
2024-02-14T12:43:15.952Z,75.90
2024-02-14T12:45:43.893Z,75.51
2024-02-14T12:48:12.535Z,78.88
2024-02-14T12:50:39.997Z,76.25
2024-02-14T12:53:08.523Z,75.75
2024-02-14T12:55:36.005Z,76.83
2024-02-14T12:58:03.871Z,80.49
2024-02-14T13:00:31.489Z,75.56
2024-02-14T13:02:59.041Z,80.02
2024-02-14T13:05:26.479Z,82.33
2024-02-14T13:07:54.008Z,81.42
2024-02-14T13:10:21.505Z,80.48
2024-02-14T13:12:48.979Z,80.62
2024-02-14T13:15:16.659Z,79.06
2024-02-14T13:17:44.184Z,80.10
2024-02-14T13:20:12.216Z,85.54
2024-02-14T13:22:39.777Z,79.14
2024-02-14T13:25:07.546Z,79.77
2024-02-14T13:27:34.995Z,80.71
2024-02-14T13:30:06.311Z,81.99
2024-02-14T13:32:34.029Z,80.01
2024-02-14T13:35:01.588Z,79.93
2024-02-14T13:37:29.332Z,76.04
2024-02-14T13:39:56.667Z,75.15
2024-02-14T13:42:24.142Z,75.84
2024-02-14T13:44:51.636Z,79.44
2024-02-14T13:47:19.450Z,74.23
2024-02-14T13:49:46.875Z,72.42
2024-02-14T13:52:14.421Z,72.49
2024-02-14T13:54:41.799Z,75.34
2024-02-14T13:57:10.525Z,73.61
2024-02-14T13:59:38.364Z,74.30
2024-02-14T14:02:06.100Z,76.83
2024-02-14T14:04:34.044Z,74.56
2024-02-14T14:07:01.945Z,75.64
2024-02-14T14:09:29.332Z,76.26
2024-02-14T14:11:56.816Z,76.83
2024-02-14T14:14:24.201Z,75.59
2024-02-14T14:16:51.696Z,75.08
2024-02-14T14:19:19.259Z,75.21
2024-02-14T14:21:46.798Z,74.33
2024-02-14T14:24:16.902Z,73.61
2024-02-14T14:26:44.390Z,74.34
2024-02-14T14:29:11.860Z,75.00
2024-02-14T14:31:39.232Z,75.86
2024-02-14T14:34:06.664Z,77.07
2024-02-14T14:36:34.155Z,79.26
2024-02-14T14:39:01.620Z,78.32
2024-02-14T14:41:29.128Z,78.22
2024-02-14T14:43:56.697Z,81.69
2024-02-14T14:46:24.024Z,80.48
2024-02-14T14:48:51.649Z,82.14
2024-02-14T14:51:19.364Z,79.72
2024-02-14T14:53:47.048Z,80.70
2024-02-14T14:56:14.464Z,80.46
2024-02-14T14:58:42.013Z,83.44
2024-02-14T15:01:09.544Z,86.10
2024-02-14T15:03:36.897Z,81.44
2024-02-14T15:06:04.650Z,81.11
2024-02-14T15:08:32.214Z,82.66
2024-02-14T15:10:59.717Z,83.29
2024-02-14T15:13:27.253Z,87.13
2024-02-14T15:15:54.780Z,86.27
2024-02-14T15:18:22.234Z,84.34
2024-02-14T15:20:49.805Z,85.80
2024-02-14T15:23:17.214Z,86.01
2024-02-14T15:25:44.588Z,85.08
2024-02-14T15:28:12.480Z,84.95
2024-02-14T15:30:39.927Z,84.94
2024-02-14T15:33:07.486Z,85.97
2024-02-14T15:35:35.134Z,87.97
2024-02-14T15:38:02.704Z,87.48
2024-02-14T15:40:30.086Z,88.40
2024-02-14T15:42:57.485Z,88.92
2024-02-14T15:45:24.991Z,88.53
2024-02-14T15:47:52.602Z,89.08
2024-02-14T15:50:19.986Z,89.14
2024-02-14T15:52:47.359Z,88.40
2024-02-14T15:55:14.890Z,89.96
2024-02-14T15:57:42.226Z,89.75
2024-02-14T16:00:10.382Z,85.17
2024-02-14T16:02:38.031Z,86.44
2024-02-14T16:05:05.801Z,93.99
2024-02-14T16:07:33.170Z,93.45
2024-02-14T16:10:00.535Z,91.87
2024-02-14T16:12:27.962Z,93.14
2024-02-14T16:14:55.524Z,97.19
2024-02-14T16:17:23.052Z,93.47
2024-02-14T16:19:50.533Z,95.58
2024-02-14T16:22:18.253Z,96.25
2024-02-14T16:24:45.664Z,98.06
2024-02-14T16:27:13.075Z,97.97
2024-02-14T16:29:40.573Z,93.44
2024-02-14T16:32:08.200Z,91.19
2024-02-14T16:34:36.015Z,90.63
2024-02-14T16:37:03.936Z,92.43
2024-02-14T16:39:41.574Z,96.13
2024-02-14T16:42:11.858Z,98.46
2024-02-14T16:44:39.665Z,97.60
2024-02-14T16:47:07.750Z,99.80
2024-02-14T16:49:35.900Z,100.00
2024-02-14T16:52:04.943Z,100.00
2024-02-14T16:54:33.059Z,100.00
2024-02-14T16:57:01.716Z,100.00
2024-02-14T16:59:28.975Z,100.00
2024-02-14T17:01:56.128Z,100.00
2024-02-14T17:04:23.401Z,100.00
2024-02-14T17:06:50.742Z,100.00
2024-02-14T17:09:18.118Z,100.00
2024-02-14T17:11:45.580Z,99.26
2024-02-14T17:14:12.917Z,98.95
2024-02-14T17:16:40.372Z,100.00
2024-02-14T17:19:07.799Z,99.12
2024-02-14T17:21:35.432Z,99.69
2024-02-14T17:24:03.230Z,98.77
2024-02-14T17:26:30.703Z,99.48
2024-02-14T17:28:58.350Z,99.66
2024-02-14T17:31:25.830Z,97.12
2024-02-14T17:33:53.491Z,94.14
2024-02-14T17:36:20.998Z,98.57
2024-02-14T17:38:48.544Z,96.10
2024-02-14T17:41:15.899Z,95.58
2024-02-14T17:43:43.269Z,95.91
2024-02-14T17:46:10.890Z,97.31
2024-02-14T17:48:38.740Z,94.90
2024-02-14T17:51:06.385Z,94.98
2024-02-14T17:53:33.812Z,94.78
2024-02-14T17:56:01.191Z,94.88
2024-02-14T17:58:28.471Z,94.91
2024-02-14T18:00:55.880Z,91.43
2024-02-14T18:03:23.434Z,91.34
2024-02-14T18:05:50.983Z,86.95
2024-02-14T18:08:18.375Z,86.85
2024-02-14T18:10:45.800Z,87.84
2024-02-14T18:13:13.609Z,86.78
2024-02-14T18:15:41.207Z,89.80
2024-02-14T18:18:08.673Z,85.39
2024-02-14T18:20:36.068Z,83.23
2024-02-14T18:23:03.715Z,83.25
2024-02-14T18:25:31.213Z,83.59
2024-02-14T18:27:58.985Z,83.66
2024-02-14T18:30:26.612Z,83.83
2024-02-14T18:32:54.129Z,83.65
2024-02-14T18:35:21.883Z,82.82
2024-02-14T18:37:49.646Z,84.68
2024-02-14T18:40:17.199Z,79.48
2024-02-14T18:42:44.589Z,79.00
2024-02-14T18:45:12.119Z,77.85
2024-02-14T18:47:39.743Z,77.68
2024-02-14T18:50:07.604Z,77.25
2024-02-14T18:52:35.128Z,77.04
2024-02-14T18:55:02.498Z,75.62
2024-02-14T18:57:29.959Z,77.60
2024-02-14T18:59:59.276Z,75.42
2024-02-14T19:02:26.691Z,75.37
2024-02-14T19:04:54.212Z,75.12
2024-02-14T19:07:21.619Z,76.84
2024-02-14T19:09:49.021Z,75.28
2024-02-14T19:12:16.650Z,75.43
2024-02-14T19:14:44.506Z,75.70
2024-02-14T19:17:39.320Z,75.16
2024-02-14T19:20:31.192Z,74.47
2024-02-14T19:23:23.120Z,75.06
2024-02-14T19:26:15.332Z,77.34
2024-02-14T19:29:09.736Z,76.31
2024-02-14T19:32:01.145Z,76.66
2024-02-14T19:34:53.131Z,77.23
2024-02-14T19:37:45.301Z,78.75
2024-02-14T19:40:36.838Z,80.13
2024-02-14T19:43:35.235Z,80.68
2024-02-14T19:46:31.185Z,80.38
2024-02-14T19:49:24.859Z,79.07
2024-02-14T19:52:16.926Z,78.72
2024-02-14T19:55:09.302Z,78.04
2024-02-14T19:58:01.349Z,78.93
2024-02-14T20:00:53.114Z,78.90
2024-02-14T20:03:45.803Z,79.31
2024-02-14T20:06:38.309Z,79.12
2024-02-14T20:09:30.241Z,78.79
2024-02-14T20:12:22.059Z,78.44
2024-02-14T20:15:14.282Z,80.30
2024-02-14T20:18:06.353Z,82.70
2024-02-14T20:20:58.511Z,84.63
2024-02-14T20:23:50.142Z,84.00
2024-02-14T20:26:42.065Z,87.15
2024-02-14T20:29:34.687Z,83.26
2024-02-14T20:32:26.165Z,82.43
2024-02-14T20:35:18.609Z,82.15
2024-02-14T20:38:10.243Z,82.54
2024-02-14T20:41:01.821Z,81.90
2024-02-14T20:43:54.206Z,81.19
2024-02-14T20:46:46.136Z,83.48
2024-02-14T20:49:39.453Z,81.31
2024-02-14T20:52:31.268Z,80.69
2024-02-14T20:55:22.854Z,82.12
2024-02-14T20:58:15.127Z,87.35
2024-02-14T21:01:07.161Z,83.58
2024-02-14T21:03:59.127Z,85.16
2024-02-14T21:06:51.354Z,90.42
2024-02-14T21:09:43.680Z,83.74
2024-02-14T21:12:34.689Z,85.42
2024-02-14T21:15:26.807Z,87.31
2024-02-14T21:18:19.200Z,87.86
2024-02-14T21:21:11.412Z,87.24
2024-02-14T21:24:03.805Z,88.83
2024-02-14T21:26:56.501Z,92.41
2024-02-14T21:29:48.232Z,88.57
2024-02-14T21:32:40.406Z,88.45
2024-02-14T21:35:32.201Z,93.66
2024-02-14T21:38:24.142Z,89.83
2024-02-14T21:41:16.286Z,90.13
2024-02-14T21:44:08.104Z,89.44
2024-02-14T21:47:00.159Z,93.35
2024-02-14T21:49:52.841Z,92.14
2024-02-14T21:52:45.254Z,93.42
2024-02-14T21:55:36.747Z,100.00
2024-02-14T21:58:29.072Z,100.00
2024-02-14T22:01:21.263Z,99.16
2024-02-14T22:04:13.053Z,100.00
2024-02-14T22:07:05.357Z,100.00
2024-02-14T22:09:57.249Z,100.00
2024-02-14T22:12:48.878Z,100.00
2024-02-14T22:15:41.525Z,100.00
2024-02-14T22:18:32.954Z,100.00
2024-02-14T22:21:25.066Z,100.00
2024-02-14T22:24:17.061Z,100.00
2024-02-14T22:27:09.242Z,100.00
2024-02-14T22:30:01.324Z,100.00
2024-02-14T22:32:52.994Z,100.00
2024-02-14T22:35:45.260Z,100.00
2024-02-14T22:38:37.736Z,100.00
2024-02-14T22:41:30.442Z,100.00
2024-02-14T22:44:21.942Z,100.00
2024-02-14T22:47:14.308Z,100.00
2024-02-14T22:50:09.077Z,100.00
2024-02-14T22:53:01.279Z,100.00
2024-02-14T22:55:53.179Z,100.00
2024-02-14T22:58:44.812Z,100.00
2024-02-14T23:01:37.329Z,100.00
2024-02-14T23:04:28.942Z,100.00
2024-02-14T23:07:21.018Z,100.00
2024-02-14T23:10:13.205Z,100.00
2024-02-14T23:13:05.290Z,100.00
2024-02-14T23:15:57.147Z,100.00
2024-02-14T23:18:49.128Z,100.00
2024-02-14T23:21:41.292Z,100.00
2024-02-14T23:24:33.203Z,100.00
2024-02-14T23:27:25.103Z,100.00
2024-02-14T23:30:16.953Z,100.00
2024-02-14T23:33:09.268Z,100.00
2024-02-14T23:36:01.783Z,100.00
2024-02-14T23:38:53.958Z,100.00
2024-02-14T23:41:45.972Z,100.00
2024-02-14T23:44:37.926Z,100.00
2024-02-14T23:47:30.435Z,100.00
2024-02-14T23:50:22.593Z,100.00
2024-02-14T23:53:14.259Z,100.00
2024-02-14T23:56:07.357Z,100.00
2024-02-14T23:58:59.128Z,100.00
